createdAt,value
2018-02-10T00:02:19.927Z,36.87
2018-02-10T00:04:48.307Z,31.53
2018-02-10T00:07:17.443Z,35.10
2018-02-10T00:09:45.848Z,40.30
2018-02-10T00:12:14.991Z,37.00
2018-02-10T00:14:43.663Z,41.60
2018-02-10T00:17:13.800Z,33.30
2018-02-10T00:19:42.168Z,39.93
2018-02-10T00:22:09.910Z,35.37
2018-02-10T00:24:38.569Z,41.73
2018-02-10T00:27:07.699Z,40.43
2018-02-10T00:29:36.284Z,37.77
2018-02-10T00:32:04.743Z,37.83
2018-02-10T00:34:33.140Z,36.93
2018-02-10T00:37:01.501Z,36.00
2018-02-10T00:39:29.993Z,37.33
2018-02-10T00:41:58.514Z,38.60
2018-02-10T00:44:27.092Z,37.40
2018-02-10T00:46:55.727Z,37.10
2018-02-10T00:49:24.165Z,39.03
2018-02-10T00:51:52.602Z,36.00
2018-02-10T00:54:20.988Z,39.70
2018-02-10T00:56:49.389Z,38.73
2018-02-10T00:59:17.900Z,40.50
2018-02-10T01:01:48.104Z,35.00
2018-02-10T01:04:16.483Z,39.90
2018-02-10T01:06:46.020Z,37.63
2018-02-10T01:09:15.872Z,38.50
2018-02-10T01:11:44.747Z,38.00
2018-02-10T01:14:12.851Z,36.63
2018-02-10T01:16:41.463Z,36.83
2018-02-10T01:19:10.802Z,36.13
2018-02-10T01:21:39.458Z,41.23
2018-02-10T01:24:08.604Z,48.13
2018-02-10T01:26:37.021Z,42.70
2018-02-10T01:29:06.193Z,38.33
2018-02-10T01:31:34.619Z,34.40
2018-02-10T01:34:03.197Z,37.67
2018-02-10T01:36:31.559Z,37.53
2018-02-10T01:39:00.869Z,35.50
2018-02-10T01:41:29.300Z,35.20
2018-02-10T01:43:57.927Z,41.40
2018-02-10T01:46:26.453Z,37.57
2018-02-10T01:48:55.556Z,38.93
2018-02-10T01:51:23.926Z,38.23
2018-02-10T01:53:52.334Z,35.97
2018-02-10T01:56:20.710Z,35.90
2018-02-10T01:58:49.241Z,32.70
2018-02-10T02:01:17.894Z,34.50
2018-02-10T02:03:46.320Z,36.20
2018-02-10T02:06:14.699Z,39.10
2018-02-10T02:08:43.055Z,35.70
2018-02-10T02:11:11.767Z,38.50
2018-02-10T02:13:40.311Z,41.33
2018-02-10T02:16:09.951Z,38.17
2018-02-10T02:18:38.460Z,37.77
2018-02-10T02:21:06.984Z,36.00
2018-02-10T02:23:35.547Z,38.77
2018-02-10T02:26:04.917Z,40.17
2018-02-10T02:28:33.619Z,35.20
2018-02-10T02:31:02.396Z,39.77
2018-02-10T02:33:30.796Z,34.20
2018-02-10T02:35:59.219Z,40.60
2018-02-10T02:38:27.650Z,38.70
2018-02-10T02:40:56.993Z,32.67
2018-02-10T02:43:25.454Z,34.63
2018-02-10T02:45:54.613Z,40.57
2018-02-10T02:48:23.021Z,33.93
2018-02-10T02:50:52.179Z,38.33
2018-02-10T02:53:20.846Z,37.77
2018-02-10T02:55:49.216Z,36.07
2018-02-10T02:58:17.993Z,36.23
2018-02-10T03:00:46.517Z,40.60
2018-02-10T03:03:14.924Z,39.90
2018-02-10T03:05:44.063Z,39.30
2018-02-10T03:08:12.591Z,36.80
2018-02-10T03:10:41.144Z,35.03
2018-02-10T03:13:09.697Z,35.90
2018-02-10T03:15:38.111Z,36.53
2018-02-10T03:18:06.501Z,35.63
2018-02-10T03:20:35.689Z,38.30
2018-02-10T03:23:04.951Z,33.67
2018-02-10T03:25:33.396Z,37.23
2018-02-10T03:28:02.673Z,37.23
2018-02-10T03:30:31.117Z,37.43
2018-02-10T03:32:59.856Z,40.40
2018-02-10T03:35:29.154Z,36.30
2018-02-10T03:37:58.311Z,36.00
2018-02-10T03:40:26.916Z,40.63
2018-02-10T03:42:54.986Z,35.77
2018-02-10T03:45:23.437Z,40.33
2018-02-10T03:47:51.796Z,46.50
2018-02-10T03:50:20.161Z,46.40
2018-02-10T03:52:48.632Z,47.87
2018-02-10T03:55:17.120Z,54.30
2018-02-10T03:57:45.655Z,54.23
2018-02-10T04:00:14.238Z,52.20
2018-02-10T04:02:42.868Z,53.23
2018-02-10T04:05:11.240Z,52.57
2018-02-10T04:07:39.718Z,51.97
2018-02-10T04:10:08.105Z,56.80
2018-02-10T04:12:36.488Z,50.20
2018-02-10T04:15:05.046Z,50.97
2018-02-10T04:17:33.498Z,48.57
2018-02-10T04:20:02.014Z,53.60
2018-02-10T04:22:31.411Z,53.40
2018-02-10T04:24:59.966Z,44.77
2018-02-10T04:27:28.398Z,42.20
2018-02-10T04:29:56.999Z,45.50
2018-02-10T04:32:25.596Z,43.67
2018-02-10T04:34:54.162Z,45.33
2018-02-10T04:37:22.758Z,48.17
2018-02-10T04:39:51.430Z,40.53
2018-02-10T04:42:19.871Z,42.10
2018-02-10T04:44:48.459Z,39.83
2018-02-10T04:47:17.595Z,42.37
2018-02-10T04:49:46.652Z,42.10
2018-02-10T04:52:15.997Z,40.13
2018-02-10T04:54:44.568Z,45.40
2018-02-10T04:57:13.162Z,44.53
2018-02-10T04:59:41.717Z,45.47
2018-02-10T05:02:10.816Z,51.40
2018-02-10T05:04:39.298Z,42.43
2018-02-10T05:07:07.700Z,47.23
2018-02-10T05:09:36.131Z,44.47
2018-02-10T05:12:05.443Z,40.00
2018-02-10T05:14:34.643Z,42.23
2018-02-10T05:17:03.107Z,43.77
2018-02-10T05:19:32.318Z,42.23
2018-02-10T05:22:00.842Z,41.10
2018-02-10T05:24:29.203Z,45.03
2018-02-10T05:26:57.658Z,37.50
2018-02-10T05:29:26.788Z,43.27
2018-02-10T05:31:55.306Z,36.60
2018-02-10T05:34:23.694Z,39.10
2018-02-10T05:36:52.045Z,41.50
2018-02-10T05:39:20.443Z,38.77
2018-02-10T05:41:48.798Z,38.43
2018-02-10T05:44:17.167Z,39.30
2018-02-10T05:46:45.578Z,38.73
2018-02-10T05:49:13.934Z,47.43
2018-02-10T05:51:42.534Z,37.30
2018-02-10T05:54:11.690Z,41.27
2018-02-10T05:56:40.090Z,40.50
2018-02-10T05:59:08.474Z,39.83
2018-02-10T06:01:36.844Z,39.00
2018-02-10T06:04:05.225Z,40.27
2018-02-10T06:06:33.606Z,40.53
2018-02-10T06:09:02.223Z,50.80
2018-02-10T06:11:31.386Z,41.03
2018-02-10T06:13:59.864Z,38.57
2018-02-10T06:16:28.245Z,40.00
2018-02-10T06:18:56.636Z,40.43
2018-02-10T06:21:24.980Z,36.57
2018-02-10T06:23:53.504Z,44.07
2018-02-10T06:26:21.934Z,39.80
2018-02-10T06:28:50.314Z,34.00
2018-02-10T06:31:18.528Z,34.77
2018-02-10T06:33:46.874Z,30.70
2018-02-10T06:36:15.272Z,37.60
2018-02-10T06:38:43.647Z,36.10
2018-02-10T06:41:12.403Z,37.40
2018-02-10T06:43:41.259Z,34.93
2018-02-10T06:46:10.408Z,35.37
2018-02-10T06:48:38.972Z,32.60
2018-02-10T06:51:07.391Z,33.43
2018-02-10T06:53:35.781Z,33.67
2018-02-10T06:56:04.795Z,33.47
2018-02-10T06:58:33.207Z,33.57
2018-02-10T07:01:01.582Z,31.43
2018-02-10T07:03:29.994Z,36.27
2018-02-10T07:05:58.426Z,33.20
2018-02-10T07:08:27.641Z,33.17
2018-02-10T07:10:56.256Z,31.80
2018-02-10T07:13:24.618Z,34.43
2018-02-10T07:15:52.999Z,31.97
2018-02-10T07:18:21.449Z,36.17
2018-02-10T07:20:49.816Z,31.90
2018-02-10T07:23:18.353Z,32.77
2018-02-10T07:25:46.965Z,30.10
2018-02-10T07:28:15.509Z,40.17
2018-02-10T07:30:43.876Z,31.83
2018-02-10T07:33:12.367Z,41.83
2018-02-10T07:35:40.807Z,35.30
2018-02-10T07:38:09.169Z,33.97
2018-02-10T07:40:37.653Z,33.57
2018-02-10T07:43:06.210Z,36.53
2018-02-10T07:45:34.568Z,35.40
2018-02-10T07:48:02.941Z,32.30
2018-02-10T07:50:31.335Z,29.87
2018-02-10T07:52:59.720Z,32.63
2018-02-10T07:55:28.124Z,37.30
2018-02-10T07:57:56.734Z,33.30
2018-02-10T08:00:25.176Z,38.20
2018-02-10T08:02:54.354Z,34.20
2018-02-10T08:05:22.719Z,34.83
2018-02-10T08:07:51.108Z,34.50
2018-02-10T08:10:19.487Z,33.73
2018-02-10T08:12:47.870Z,34.13
2018-02-10T08:15:16.478Z,37.20
2018-02-10T08:17:44.894Z,34.33
2018-02-10T08:20:13.308Z,33.90
2018-02-10T08:22:42.457Z,36.43
2018-02-10T08:25:10.836Z,34.03
2018-02-10T08:27:39.198Z,35.93
2018-02-10T08:30:07.578Z,39.00
2018-02-10T08:32:35.979Z,35.23
2018-02-10T08:35:04.023Z,33.50
2018-02-10T08:37:32.557Z,35.90
2018-02-10T08:40:01.026Z,33.87
2018-02-10T08:42:29.417Z,40.10
2018-02-10T08:44:58.267Z,37.97
2018-02-10T08:47:26.762Z,35.93
2018-02-10T08:49:55.118Z,31.77
2018-02-10T08:52:23.502Z,31.27
2018-02-10T08:54:51.856Z,32.20
2018-02-10T08:57:20.396Z,39.00
2018-02-10T08:59:48.795Z,33.00
2018-02-10T09:02:17.941Z,31.87
2018-02-10T09:04:46.328Z,30.43
2018-02-10T09:07:14.727Z,31.13
2018-02-10T09:09:43.087Z,32.03
2018-02-10T09:12:11.479Z,31.20
2018-02-10T09:14:39.866Z,33.77
2018-02-10T09:17:08.405Z,34.23
2018-02-10T09:19:36.786Z,31.77
2018-02-10T09:22:05.179Z,35.63
2018-02-10T09:24:33.639Z,30.93
2018-02-10T09:27:02.017Z,36.57
2018-02-10T09:29:30.572Z,31.20
2018-02-10T09:31:59.687Z,36.13
2018-02-10T09:34:28.070Z,30.70
2018-02-10T09:36:56.769Z,31.90
2018-02-10T09:39:25.308Z,31.40
2018-02-10T09:41:54.493Z,30.20
2018-02-10T09:44:22.929Z,28.23
2018-02-10T09:46:51.450Z,28.97
2018-02-10T09:49:19.903Z,32.43
2018-02-10T09:51:48.297Z,26.53
2018-02-10T09:54:17.038Z,30.43
2018-02-10T09:56:45.400Z,31.73
2018-02-10T09:59:13.779Z,30.40
2018-02-10T10:01:42.641Z,27.90
2018-02-10T10:04:11.814Z,28.13
2018-02-10T10:06:40.616Z,30.70
2018-02-10T10:09:10.020Z,31.60
2018-02-10T10:11:38.562Z,29.37
2018-02-10T10:14:06.964Z,29.57
2018-02-10T10:16:35.415Z,31.57
2018-02-10T10:19:03.799Z,30.27
2018-02-10T10:21:32.324Z,31.23
2018-02-10T10:24:00.718Z,32.30
2018-02-10T10:26:29.879Z,28.63
2018-02-10T10:28:58.243Z,37.27
2018-02-10T10:31:26.795Z,38.43
2018-02-10T10:33:55.153Z,34.07
2018-02-10T10:36:24.295Z,32.00
2018-02-10T10:38:52.669Z,33.97
2018-02-10T10:41:21.159Z,41.50
2018-02-10T10:43:49.584Z,35.30
2018-02-10T10:46:18.232Z,35.00
2018-02-10T10:48:46.739Z,37.00
2018-02-10T10:51:16.096Z,37.37
2018-02-10T10:53:44.528Z,34.53
2018-02-10T10:56:13.949Z,36.20
2018-02-10T10:58:42.654Z,34.00
2018-02-10T11:01:11.339Z,34.60
2018-02-10T11:03:39.752Z,33.30
2018-02-10T11:06:08.197Z,35.20
2018-02-10T11:08:36.868Z,33.00
2018-02-10T11:11:05.246Z,31.43
2018-02-10T11:13:34.417Z,29.77
2018-02-10T11:16:03.563Z,29.37
2018-02-10T11:18:32.127Z,33.40
2018-02-10T11:21:00.517Z,39.03
2018-02-10T11:23:28.901Z,30.13
2018-02-10T11:25:57.274Z,28.00
2018-02-10T11:28:25.672Z,31.40
2018-02-10T11:30:54.045Z,31.40
2018-02-10T11:33:22.418Z,30.27
2018-02-10T11:35:50.983Z,28.13
2018-02-10T11:38:19.371Z,36.30
2018-02-10T11:40:47.799Z,29.57
2018-02-10T11:43:16.949Z,28.80
2018-02-10T11:45:45.318Z,28.67
2018-02-10T11:48:13.694Z,26.37
2018-02-10T11:50:42.047Z,25.40
2018-02-10T11:53:11.294Z,28.80
2018-02-10T11:55:39.808Z,27.20
2018-02-10T11:58:08.185Z,26.17
2018-02-10T12:00:37.347Z,27.17
2018-02-10T12:03:05.737Z,33.37
2018-02-10T12:05:34.113Z,28.20
2018-02-10T12:08:02.726Z,27.57
2018-02-10T12:10:31.320Z,30.60
2018-02-10T12:12:59.902Z,39.83
2018-02-10T12:15:28.414Z,31.77
2018-02-10T12:17:56.898Z,35.50
2018-02-10T12:20:25.335Z,38.43
2018-02-10T12:22:54.471Z,32.50
2018-02-10T12:25:22.809Z,39.30
2018-02-10T12:27:51.337Z,43.43
2018-02-10T12:30:19.734Z,41.93
2018-02-10T12:32:48.390Z,51.43
2018-02-10T12:35:17.632Z,44.27
2018-02-10T12:37:46.831Z,40.07
2018-02-10T12:40:15.201Z,34.93
2018-02-10T12:42:43.631Z,41.83
2018-02-10T12:45:12.126Z,43.90
2018-02-10T12:47:58.166Z,50.90
2018-02-10T12:50:26.595Z,45.10
2018-02-10T12:52:54.974Z,38.87
2018-02-10T12:55:23.332Z,47.13
2018-02-10T12:57:53.064Z,42.40
2018-02-10T13:00:21.459Z,39.40
2018-02-10T13:02:49.919Z,45.43
2018-02-10T13:05:18.639Z,36.97
2018-02-10T13:07:46.986Z,43.20
2018-02-10T13:10:15.465Z,41.67
2018-02-10T13:12:43.846Z,45.70
2018-02-10T13:15:12.222Z,45.13
2018-02-10T13:17:40.574Z,40.57
2018-02-10T13:20:09.886Z,33.83
2018-02-10T13:22:38.355Z,45.97
2018-02-10T13:25:06.863Z,41.73
2018-02-10T13:27:35.546Z,38.03
2018-02-10T13:30:03.895Z,45.80
2018-02-10T13:32:32.275Z,38.53
2018-02-10T13:35:00.682Z,38.93
2018-02-10T13:37:28.922Z,37.87
2018-02-10T13:39:57.286Z,40.63
2018-02-10T13:42:25.665Z,35.93
2018-02-10T13:44:54.623Z,36.63
2018-02-10T13:47:22.960Z,39.30
2018-02-10T13:49:51.517Z,36.50
2018-02-10T13:52:19.929Z,42.50
2018-02-10T13:54:48.367Z,39.67
2018-02-10T13:57:16.881Z,42.97
2018-02-10T13:59:45.233Z,35.83
2018-02-10T14:02:14.206Z,36.63
2018-02-10T14:04:42.647Z,40.57
2018-02-10T14:26:55.426Z,37.77
2018-02-10T14:29:23.790Z,38.70
2018-02-10T14:31:52.185Z,39.07
2018-02-10T14:34:20.770Z,40.57
2018-02-10T14:36:49.407Z,36.07
2018-02-10T14:39:18.770Z,30.17
2018-02-10T14:41:47.449Z,31.65
2018-02-10T14:44:15.824Z,34.10
2018-02-10T14:46:44.187Z,36.53
2018-02-10T14:49:12.757Z,41.43
2018-02-10T14:51:41.136Z,30.60
2018-02-10T14:54:09.502Z,38.00
2018-02-10T14:56:38.666Z,37.03
2018-02-10T14:59:07.032Z,36.00
2018-02-10T15:01:35.417Z,36.90
2018-02-10T15:04:03.782Z,38.67
2018-02-10T15:06:32.346Z,41.50
2018-02-10T15:09:00.837Z,46.03
2018-02-10T15:11:30.900Z,36.80
2018-02-10T15:14:00.038Z,46.03
2018-02-10T15:16:28.416Z,43.60
2018-02-10T15:18:57.806Z,46.03
2018-02-10T15:21:26.253Z,42.00
2018-02-10T15:23:55.670Z,43.90
2018-02-10T15:26:24.613Z,43.17
2018-02-10T15:28:53.680Z,53.17
2018-02-10T15:31:26.087Z,41.73
2018-02-10T15:34:05.715Z,43.17
2018-02-10T15:36:34.277Z,42.30
2018-02-10T15:39:02.691Z,43.57
2018-02-10T15:41:31.376Z,42.60
2018-02-10T15:43:59.743Z,40.47
2018-02-10T15:46:28.167Z,37.03
2018-02-10T15:48:57.309Z,41.57
2018-02-10T15:51:25.669Z,50.07
2018-02-10T15:53:55.167Z,62.07
2018-02-10T15:56:24.695Z,55.40
2018-02-10T15:58:53.222Z,47.93
2018-02-10T16:01:22.393Z,48.10
2018-02-10T16:03:50.763Z,45.67
2018-02-10T16:06:19.139Z,77.30
2018-02-10T16:08:47.542Z,68.30
2018-02-10T16:11:15.941Z,58.17
2018-02-10T16:13:45.227Z,46.73
2018-02-10T16:16:13.596Z,47.90
2018-02-10T16:18:41.989Z,53.07
2018-02-10T16:21:11.230Z,39.40
2018-02-10T16:23:39.653Z,33.00
2018-02-10T16:26:08.804Z,33.77
2018-02-10T16:28:37.205Z,35.13
2018-02-10T16:31:05.678Z,29.53
2018-02-10T16:33:34.016Z,33.80
2018-02-10T16:36:02.419Z,29.33
2018-02-10T16:38:30.766Z,42.23
2018-02-10T16:40:59.907Z,30.93
2018-02-10T16:43:28.274Z,36.57
2018-02-10T16:45:56.707Z,33.70
2018-02-10T16:48:25.468Z,34.13
2018-02-10T16:50:54.051Z,31.37
2018-02-10T16:53:22.432Z,32.10
2018-02-10T16:55:50.873Z,29.17
2018-02-10T16:58:19.304Z,30.70
2018-02-10T17:00:47.675Z,20.83
2018-02-10T17:03:16.513Z,24.37
2018-02-10T17:05:44.991Z,31.03
2018-02-10T17:08:13.609Z,22.90
2018-02-10T17:10:42.031Z,23.03
2018-02-10T17:13:11.320Z,21.70
2018-02-10T17:15:40.490Z,16.93
2018-02-10T17:18:09.716Z,23.10
2018-02-10T17:20:38.948Z,19.10
2018-02-10T17:23:07.387Z,18.97
2018-02-10T17:25:36.567Z,15.70
2018-02-10T17:28:05.059Z,19.13
2018-02-10T17:30:34.415Z,17.87
2018-02-10T17:33:03.050Z,15.97
2018-02-10T17:35:32.216Z,14.63
2018-02-10T17:38:00.832Z,18.83
2018-02-10T17:40:29.978Z,16.27
2018-02-10T17:42:58.343Z,18.77
2018-02-10T17:45:27.026Z,27.10
2018-02-10T17:47:55.202Z,20.03
2018-02-10T17:50:23.587Z,14.87
2018-02-10T17:52:51.863Z,19.07
2018-02-10T17:55:20.232Z,19.43
2018-02-10T17:57:48.745Z,22.80
2018-02-10T18:00:17.108Z,19.47
2018-02-10T18:02:45.673Z,20.10
2018-02-10T18:05:14.129Z,23.40
2018-02-10T18:07:43.473Z,18.80
2018-02-10T18:10:11.504Z,15.83
2018-02-10T18:12:39.874Z,20.00
2018-02-10T18:15:09.069Z,18.30
2018-02-10T18:17:37.636Z,23.73
2018-02-10T18:20:06.782Z,19.40
2018-02-10T18:22:35.143Z,24.20
2018-02-10T18:25:03.502Z,19.67
2018-02-10T18:27:32.634Z,19.33
2018-02-10T18:30:01.007Z,22.53
2018-02-10T18:32:29.526Z,21.93
2018-02-10T18:34:57.887Z,18.10
2018-02-10T18:37:26.257Z,16.07
2018-02-10T18:39:54.623Z,30.20
2018-02-10T18:42:23.503Z,22.10
2018-02-10T18:44:52.045Z,19.30
2018-02-10T18:47:20.397Z,21.13
2018-02-10T18:49:48.905Z,17.30
2018-02-10T18:52:17.341Z,19.93
2018-02-10T18:54:45.710Z,16.07
2018-02-10T18:57:14.067Z,17.67
2018-02-10T18:59:42.427Z,15.13
2018-02-10T19:02:11.539Z,18.37
2018-02-10T19:04:39.914Z,20.43
2018-02-10T19:07:09.166Z,19.50
2018-02-10T19:09:37.650Z,20.20
2018-02-10T19:12:06.964Z,20.43
2018-02-10T19:14:35.533Z,16.27
2018-02-10T19:17:04.069Z,16.00
2018-02-10T19:19:32.697Z,15.20
2018-02-10T19:22:01.253Z,19.60
2018-02-10T19:24:29.807Z,19.77
2018-02-10T19:26:58.940Z,13.53
2018-02-10T19:29:27.288Z,18.60
2018-02-10T19:31:55.690Z,20.03
2018-02-10T19:34:24.069Z,14.30
2018-02-10T19:36:52.437Z,14.93
2018-02-10T19:39:20.974Z,13.37
2018-02-10T19:41:50.119Z,12.83
2018-02-10T19:44:18.485Z,12.30
2018-02-10T19:46:46.854Z,14.33
2018-02-10T19:49:15.844Z,15.67
2018-02-10T19:51:44.330Z,16.50
2018-02-10T19:54:12.934Z,13.77
2018-02-10T19:56:41.524Z,11.03
2018-02-10T19:59:09.999Z,14.73
2018-02-10T20:01:38.502Z,11.53
2018-02-10T20:04:06.922Z,13.00
2018-02-10T20:06:36.058Z,11.47
2018-02-10T20:09:03.785Z,8.90
2018-02-10T20:11:32.229Z,10.37
2018-02-10T20:14:01.357Z,12.60
2018-02-10T20:16:29.859Z,11.30
2018-02-10T20:18:58.238Z,11.20
2018-02-10T20:21:26.638Z,11.00
2018-02-10T20:23:55.105Z,10.63
2018-02-10T20:26:23.498Z,13.00
2018-02-10T20:28:51.986Z,10.87
2018-02-10T20:31:20.359Z,12.67
2018-02-10T20:33:48.719Z,14.00
2018-02-10T20:36:18.038Z,12.20
2018-02-10T20:38:46.411Z,11.30
2018-02-10T20:41:14.942Z,9.17
2018-02-10T20:43:44.054Z,11.57
2018-02-10T20:46:12.580Z,11.37
2018-02-10T20:48:40.981Z,8.93
2018-02-10T20:51:09.377Z,8.50
2018-02-10T20:53:39.076Z,8.77
2018-02-10T20:56:08.368Z,10.57
2018-02-10T20:58:37.060Z,12.70
2018-02-10T21:01:06.203Z,11.03
2018-02-10T21:03:34.707Z,14.40
2018-02-10T21:06:03.103Z,10.57
2018-02-10T21:08:31.492Z,10.70
2018-02-10T21:11:00.630Z,14.10
2018-02-10T21:13:29.006Z,9.57
2018-02-10T21:15:57.353Z,9.40
2018-02-10T21:18:26.627Z,12.63
2018-02-10T21:20:55.029Z,13.63
2018-02-10T21:23:24.204Z,11.53
2018-02-10T21:25:52.580Z,12.87
2018-02-10T21:28:20.938Z,12.27
2018-02-10T21:30:49.531Z,13.30
2018-02-10T21:33:18.033Z,12.00
2018-02-10T21:35:47.219Z,8.23
2018-02-10T21:38:15.602Z,14.53
2018-02-10T21:40:44.075Z,10.87
2018-02-10T21:43:12.147Z,10.93
2018-02-10T21:45:40.511Z,12.50
2018-02-10T21:48:08.914Z,8.87
2018-02-10T21:50:38.188Z,9.17
2018-02-10T21:53:06.547Z,9.27
2018-02-10T21:55:35.112Z,18.53
2018-02-10T21:58:03.668Z,9.83
2018-02-10T22:00:32.806Z,12.17
2018-02-10T22:03:01.811Z,11.27
2018-02-10T22:05:30.139Z,8.80
2018-02-10T22:07:59.434Z,9.77
2018-02-10T22:10:28.868Z,13.30
2018-02-10T22:12:57.242Z,7.57
2018-02-10T22:15:25.755Z,10.80
2018-02-10T22:17:54.159Z,12.90
2018-02-10T22:20:23.272Z,14.97
2018-02-10T22:22:52.609Z,13.87
2018-02-10T22:25:21.036Z,12.23
2018-02-10T22:27:50.210Z,7.40
2018-02-10T22:30:18.388Z,7.43
2018-02-10T22:32:46.918Z,8.60
2018-02-10T22:35:15.294Z,8.00
2018-02-10T22:37:43.819Z,8.20
2018-02-10T22:40:12.224Z,7.63
2018-02-10T22:42:41.382Z,8.93
2018-02-10T22:45:09.824Z,8.43
2018-02-10T22:47:39.023Z,7.30
2018-02-10T22:50:07.455Z,7.60
2018-02-10T22:52:35.969Z,6.93
2018-02-10T22:55:04.775Z,9.27
2018-02-10T22:57:33.979Z,11.90
2018-02-10T23:00:02.328Z,8.60
2018-02-10T23:02:31.579Z,7.93
2018-02-10T23:04:59.915Z,8.10
2018-02-10T23:07:29.055Z,14.53
2018-02-10T23:09:57.409Z,9.33
2018-02-10T23:12:25.989Z,10.30
2018-02-10T23:14:54.324Z,7.63
2018-02-10T23:17:22.774Z,12.87
2018-02-10T23:19:51.126Z,8.23
2018-02-10T23:22:19.507Z,10.43
2018-02-10T23:24:47.893Z,14.30
2018-02-10T23:27:16.541Z,9.90
2018-02-10T23:29:45.847Z,10.20
2018-02-10T23:32:15.099Z,11.70
2018-02-10T23:34:43.615Z,11.63
2018-02-10T23:37:12.970Z,11.33
2018-02-10T23:39:41.326Z,9.17
2018-02-10T23:42:09.681Z,9.20
2018-02-10T23:44:38.899Z,11.93
2018-02-10T23:47:07.275Z,9.73
2018-02-10T23:49:35.679Z,9.30
2018-02-10T23:52:04.043Z,11.23
2018-02-10T23:54:32.598Z,10.73
2018-02-10T23:57:01.558Z,10.40
2018-02-10T23:59:29.955Z,7.97
